Time;durP1;ratioP1;P1;durP2;ratioP2;P2;SDS_P1;SDS_P2;PMS_P1;PMS_P2;Temp;Humidity;BMP_temperature;BMP_pressure;BME280_temperature;BME280_humidity;BME280_pressure;Samples;Min_cycle;Max_cycle;Signal;HPM_P1;HPM_P2
2021/03/24 00:00:08;;;;;;;405.97;133.60;;;;;;;4.57;67.39;99397.63;5034789;28;20295;-68
2021/03/24 00:02:33;;;;;;;401.33;126.17;;;;;;;4.56;67.68;99395.06;5032713;28;20045;-68
2021/03/24 00:04:58;;;;;;;406.03;133.73;;;;;;;4.59;67.37;99392.56;5033706;28;20279;-67
2021/03/24 00:07:24;;;;;;;406.70;130.83;;;;;;;4.61;67.28;99390.91;5027973;28;20040;-69
2021/03/24 00:09:49;;;;;;;401.50;131.40;;;;;;;4.69;66.89;99388.50;5030643;28;20025;-68
2021/03/24 00:12:15;;;;;;;407.07;135.27;;;;;;;4.67;67.26;99396.09;5031107;28;20036;-68
2021/03/24 00:14:40;;;;;;;403.63;131.67;;;;;;;4.68;67.07;99392.72;5033888;28;20094;-68
2021/03/24 00:17:05;;;;;;;402.20;126.93;;;;;;;4.74;66.90;99397.91;5031872;28;20100;-68
2021/03/24 00:19:31;;;;;;;399.30;129.30;;;;;;;4.74;67.05;99389.44;5035173;28;20309;-68
2021/03/24 00:21:56;;;;;;;398.33;131.47;;;;;;;4.75;67.07;99393.69;5033292;28;20029;-68
2021/03/24 00:24:22;;;;;;;390.70;126.87;;;;;;;4.84;66.52;99398.91;5027771;28;20037;-67
2021/03/24 00:26:47;;;;;;;395.00;133.70;;;;;;;4.85;66.56;99401.47;5029501;28;20033;-68
2021/03/24 00:29:12;;;;;;;391.70;129.03;;;;;;;4.76;66.42;99382.69;5034309;28;20060;-68
2021/03/24 00:31:38;;;;;;;399.90;132.40;;;;;;;4.81;66.97;99397.19;5029634;28;20061;-67
2021/03/24 00:34:03;;;;;;;399.00;130.97;;;;;;;4.75;66.73;99381.00;5030794;28;20030;-68
2021/03/24 00:36:28;;;;;;;392.20;128.77;;;;;;;4.84;66.50;99401.44;5031327;28;20048;-67
2021/03/24 00:38:54;;;;;;;395.27;126.30;;;;;;;4.92;66.05;99399.91;5034963;28;20259;-68
2021/03/24 00:41:19;;;;;;;394.57;130.83;;;;;;;4.84;66.26;99376.91;5033235;28;20044;-68
2021/03/24 00:43:45;;;;;;;404.73;138.17;;;;;;;4.91;66.26;99380.41;5032419;28;20405;-69
2021/03/24 00:46:10;;;;;;;393.37;129.57;;;;;;;4.90;65.92;99393.94;5028415;28;20038;-68
2021/03/24 00:48:36;;;;;;;394.00;129.20;;;;;;;4.94;65.84;99393.16;5031373;28;20065;-68
2021/03/24 00:51:02;;;;;;;395.40;130.63;;;;;;;4.94;65.95;99388.06;5034890;28;20029;-68
2021/03/24 00:53:28;;;;;;;393.87;131.67;;;;;;;4.92;65.78;99395.66;5028410;28;20032;-67
2021/03/24 00:55:54;;;;;;;387.40;128.07;;;;;;;4.89;66.02;99393.06;5031907;28;20279;-68
2021/03/24 00:58:19;;;;;;;391.07;131.00;;;;;;;4.85;65.95;99390.47;5033385;28;20322;-68
2021/03/24 01:00:46;;;;;;;389.63;130.00;;;;;;;4.91;65.68;99380.41;5030910;28;20044;-67
2021/03/24 01:03:13;;;;;;;386.85;130.65;;;;;;;4.87;66.28;99384.59;5029751;28;20486;-67
2021/03/24 01:05:42;;;;;;;378.70;136.82;;;;;;;4.90;66.19;99386.31;5033386;28;20033;-67
2021/03/24 01:08:11;;;;;;;364.27;129.57;;;;;;;4.89;66.33;99392.22;5030784;28;20041;-67
2021/03/24 01:10:38;;;;;;;366.35;131.18;;;;;;;4.88;66.28;99380.38;5032083;28;20090;-67
2021/03/24 01:13:04;;;;;;;344.17;235.75;;;;;;;4.80;66.07;99377.69;5027375;28;20021;-67
2021/03/24 01:15:31;;;;;;;366.97;126.77;;;;;;;4.89;66.28;99374.44;5034239;28;20030;-68
2021/03/24 01:17:56;;;;;;;375.90;130.47;;;;;;;4.79;66.40;99377.69;5031637;28;20167;-68
2021/03/24 01:20:25;;;;;;;375.10;122.77;;;;;;;4.78;66.31;99360.72;5032258;28;20105;-68
2021/03/24 01:22:50;;;;;;;;;;;;;;;4.84;66.40;99376.03;5029566;28;20029;-68
2021/03/24 01:25:16;;;;;;;;;;;;;;;4.83;66.36;99362.50;5032816;28;19921;-67
2021/03/24 01:27:42;;;;;;;;;;;;;;;4.79;66.31;99359.91;5029606;28;19913;-67
2021/03/24 01:30:08;;;;;;;361.37;115.37;;;;;;;4.75;66.63;99365.75;5031490;28;19927;-68
2021/03/24 01:32:33;;;;;;;375.50;126.87;;;;;;;4.66;66.50;99358.84;5030945;28;20141;-67
2021/03/24 01:34:59;;;;;;;367.93;118.87;;;;;;;4.69;66.24;99360.56;5031213;28;20395;-68
2021/03/24 01:37:24;;;;;;;384.23;126.23;;;;;;;4.65;66.61;99367.28;5034965;28;20034;-68
2021/03/24 01:39:50;;;;;;;395.20;136.13;;;;;;;4.63;66.78;99370.63;5031542;28;20033;-67
2021/03/24 01:42:15;;;;;;;414.87;226.30;;;;;;;4.62;66.75;99381.63;5033002;28;20033;-67
2021/03/24 01:45:03;;;;;;;391.53;127.47;;;;;;;4.72;66.26;99383.47;5029347;28;20343;-67
2021/03/24 01:47:29;;;;;;;362.17;122.27;;;;;;;4.66;66.59;99374.09;5035825;28;20021;-67
2021/03/24 01:49:56;;;;;;;371.13;128.77;;;;;;;4.66;66.69;99376.63;5026353;28;20289;-68
2021/03/24 01:52:23;;;;;;;387.13;126.23;;;;;;;4.59;66.53;99370.56;5033958;28;20268;-68
2021/03/24 01:54:49;;;;;;;373.80;120.20;;;;;;;4.65;66.57;99374.91;5030938;28;20267;-67
2021/03/24 01:57:26;;;;;;;389.37;129.47;;;;;;;4.71;66.67;99374.16;5033478;28;20338;-67
2021/03/24 01:59:53;;;;;;;367.17;141.03;;;;;;;4.60;66.79;99364.66;5030171;28;20029;-66
2021/03/24 02:02:22;;;;;;;416.57;216.83;;;;;;;4.54;67.29;99368.81;5029604;28;20286;-68
2021/03/24 02:04:48;;;;;;;383.80;123.90;;;;;;;4.54;67.11;99366.28;5027884;28;20283;-68
2021/03/24 02:07:37;;;;;;;385.00;130.33;;;;;;;4.57;67.13;99368.84;5032414;28;20495;-67
2021/03/24 02:10:14;;;;;;;361.13;122.70;;;;;;;4.43;67.14;99360.13;5032786;28;20295;-67
2021/03/24 02:12:49;;;;;;;325.03;143.67;;;;;;;4.36;67.56;99359.19;5028764;28;20037;-67
2021/03/24 02:15:21;;;;;;;390.23;124.18;;;;;;;4.35;67.53;99367.63;5033531;28;20283;-68
2021/03/24 02:17:47;;;;;;;379.77;133.63;;;;;;;4.36;67.71;99374.41;5024178;28;20414;-67
2021/03/24 02:20:21;;;;;;;375.70;117.93;;;;;;;4.31;67.97;99375.16;5032090;28;20290;-67
2021/03/24 02:22:53;;;;;;;375.63;120.93;;;;;;;4.30;68.05;99383.59;5032400;28;20048;-67
2021/03/24 02:25:29;;;;;;;284.57;141.40;;;;;;;4.21;68.53;99385.97;5035826;28;20286;-67
2021/03/24 02:27:58;;;;;;;385.37;128.17;;;;;;;4.21;68.46;99380.88;5032599;28;20275;-68
2021/03/24 02:30:31;;;;;;;399.67;204.13;;;;;;;4.13;68.46;99383.28;5035687;28;20307;-67
2021/03/24 02:33:01;;;;;;;392.40;133.17;;;;;;;4.08;68.97;99378.13;5040611;28;20180;-67
2021/03/24 02:35:31;;;;;;;400.20;127.43;;;;;;;3.83;69.61;99375.94;5037476;28;20037;-68
2021/03/24 02:38:01;;;;;;;372.97;121.60;;;;;;;3.74;70.00;99387.59;5040558;28;20045;-67
2021/03/24 02:40:29;;;;;;;402.53;129.43;;;;;;;3.64;70.35;99391.63;5037500;28;20025;-69
2021/03/24 02:42:56;;;;;;;404.63;129.73;;;;;;;3.56;70.52;99385.56;5038514;28;20272;-68
2021/03/24 02:45:25;;;;;;;374.07;136.27;;;;;;;3.44;71.04;99393.72;5038738;28;20108;-69
2021/03/24 02:47:52;;;;;;;379.77;125.00;;;;;;;3.30;71.23;99377.41;5036893;28;20264;-68
2021/03/24 02:50:20;;;;;;;387.97;120.73;;;;;;;3.20;71.42;99391.53;5032041;28;20276;-68
2021/03/24 02:52:46;;;;;;;389.23;131.13;;;;;;;3.05;71.92;99382.75;5037095;28;20319;-68
2021/03/24 02:55:14;;;;;;;400.00;130.57;;;;;;;2.97;72.05;99391.84;5030109;28;20272;-68
2021/03/24 02:57:40;;;;;;;388.40;123.30;;;;;;;2.86;72.95;99396.63;5035537;28;20280;-69
2021/03/24 03:00:08;;;;;;;389.67;122.20;;;;;;;2.79;74.03;99392.25;5034501;28;20709;-67
2021/03/24 03:02:37;;;;;;;365.33;118.60;;;;;;;2.89;73.79;99375.59;5034746;28;20436;-68
2021/03/24 03:05:10;;;;;;;394.03;128.47;;;;;;;2.90;73.52;99384.91;5033061;28;20380;-69
2021/03/24 03:08:01;;;;;;;404.40;125.70;;;;;;;2.89;74.04;99380.66;5033862;28;20275;-68
2021/03/24 03:10:36;;;;;;;402.63;127.90;;;;;;;2.84;74.26;99389.84;5031867;28;20316;-67
2021/03/24 03:13:09;;;;;;;384.27;118.80;;;;;;;2.83;74.02;99390.66;5029606;28;20280;-68
2021/03/24 03:15:41;;;;;;;390.03;121.63;;;;;;;2.77;74.44;99386.28;5030800;28;20059;-66
2021/03/24 03:18:15;;;;;;;388.13;121.87;;;;;;;2.62;74.75;99379.19;5032176;28;21014;-67
2021/03/24 03:20:47;;;;;;;374.27;113.53;;;;;;;2.56;75.37;99390.81;5031489;28;20510;-67
2021/03/24 03:23:19;;;;;;;374.80;119.00;;;;;;;2.46;75.49;99389.72;5028930;28;20268;-67
2021/03/24 03:25:59;;;;;;;392.53;123.90;;;;;;;2.37;75.78;99398.78;5029070;28;20652;-66
2021/03/24 03:28:26;;;;;;;384.63;119.37;;;;;;;2.15;76.29;99390.63;5028947;28;20688;-66
2021/03/24 03:30:55;;;;;;;392.53;122.40;;;;;;;2.16;76.71;99394.03;5031546;28;20297;-66
2021/03/24 03:33:24;;;;;;;398.27;123.33;;;;;;;2.07;77.13;99399.69;5033729;28;20357;-66
2021/03/24 03:35:53;;;;;;;387.77;121.37;;;;;;;2.01;77.88;99391.06;5029061;28;20281;-67
2021/03/24 03:38:20;;;;;;;387.23;120.57;;;;;;;2.05;78.22;99388.66;5033100;28;20545;-67
2021/03/24 03:40:47;;;;;;;382.60;117.73;;;;;;;2.02;77.79;99390.25;5032862;28;20253;-65
2021/03/24 03:43:16;;;;;;;391.13;118.63;;;;;;;2.03;77.53;99390.31;5028607;28;20387;-65
2021/03/24 03:45:43;;;;;;;377.97;115.03;;;;;;;1.93;77.29;99382.44;5028428;28;20253;-66
2021/03/24 03:48:12;;;;;;;386.17;117.53;;;;;;;1.84;77.79;99391.47;5031256;28;20650;-66
2021/03/24 03:50:38;;;;;;;376.53;118.67;;;;;;;1.73;77.72;99389.47;5030506;28;20445;-66
2021/03/24 03:53:22;;;;;;;399.73;121.10;;;;;;;1.65;78.21;99390.94;5030904;28;20585;-66
2021/03/24 03:56:13;;;;;;;367.57;113.23;;;;;;;1.59;78.49;99394.13;5030087;28;20498;-65
2021/03/24 03:58:48;;;;;;;374.47;113.17;;;;;;;1.57;78.93;99393.22;5033073;28;20279;-65
2021/03/24 04:01:17;;;;;;;;;;;;;;;1.51;78.29;99390.53;5031208;28;20287;-65
2021/03/24 04:03:54;;;;;;;376.17;111.10;;;;;;;1.37;78.78;99390.13;5029477;28;19984;-67
2021/03/24 04:06:24;;;;;;;361.25;109.72;;;;;;;1.28;78.81;99387.31;5028743;28;20290;-67
2021/03/24 04:08:52;;;;;;;384.57;117.90;;;;;;;1.22;78.94;99394.72;5032347;28;20124;-67
2021/03/24 04:11:21;;;;;;;382.60;116.00;;;;;;;1.19;79.82;99394.63;5028482;28;20284;-66
2021/03/24 04:13:52;;;;;;;341.53;116.40;;;;;;;1.21;80.14;99397.19;5031885;28;20326;-67
2021/03/24 04:16:18;;;;;;;361.10;109.22;;;;;;;1.09;79.85;99396.81;5030522;28;20319;-68
2021/03/24 04:18:52;;;;;;;367.13;112.80;;;;;;;1.08;79.95;99403.53;5030703;28;20038;-70
2021/03/24 04:21:20;;;;;;;344.20;114.80;;;;;;;1.01;80.50;99408.34;5030060;28;20454;-69
2021/03/24 04:23:51;;;;;;;351.63;112.57;;;;;;;0.99;80.41;99404.91;5035118;28;20314;-70
2021/03/24 04:26:23;;;;;;;384.50;113.43;;;;;;;0.90;80.92;99405.47;5035458;28;20049;-69
2021/03/24 04:28:54;;;;;;;323.30;131.40;;;;;;;0.89;80.97;99404.63;5026652;28;20372;-71
2021/03/24 04:31:23;;;;;;;364.58;113.88;;;;;;;0.85;81.01;99410.38;5032590;28;20025;-69
2021/03/24 04:33:48;;;;;;;333.90;107.83;;;;;;;0.77;80.74;99413.47;5026771;28;20116;-69
2021/03/24 04:36:25;;;;;;;349.40;171.63;;;;;;;0.87;81.49;99418.00;5033646;28;20784;-73
2021/03/24 04:38:54;;;;;;;369.70;110.47;;;;;;;0.85;80.92;99420.47;5031069;28;20069;-72
2021/03/24 04:41:24;;;;;;;375.37;112.60;;;;;;;0.86;80.73;99416.28;5030294;28;20777;-71
2021/03/24 04:43:58;;;;;;;388.37;119.07;;;;;;;0.87;81.12;99416.34;5031650;28;20312;-72
2021/03/24 04:46:28;;;;;;;283.35;92.07;;;;;;;0.95;81.57;99415.72;5035250;28;20268;-71
2021/03/24 04:49:00;;;;;;;392.85;125.70;;;;;;;0.99;81.50;99420.91;5033086;28;20033;-72
2021/03/24 04:51:30;;;;;;;371.83;111.63;;;;;;;1.05;81.39;99421.13;5028924;28;20033;-70
2021/03/24 04:54:18;;;;;;;381.08;122.45;;;;;;;1.15;81.66;99429.81;5048584;28;20346;-71
2021/03/24 04:56:49;;;;;;;372.38;110.15;;;;;;;1.22;81.38;99427.56;5033085;28;20278;-71
2021/03/24 04:59:18;;;;;;;394.07;119.87;;;;;;;1.25;81.22;99424.25;5032040;28;20036;-71
2021/03/24 05:01:48;;;;;;;361.23;110.23;;;;;;;1.38;80.47;99422.16;5030513;28;20307;-70
2021/03/24 05:04:25;;;;;;;360.73;114.55;;;;;;;1.49;80.34;99436.75;5032454;28;20276;-70
2021/03/24 05:07:08;;;;;;;371.63;117.03;;;;;;;1.55;80.18;99440.34;5031505;28;20068;-71
2021/03/24 05:09:34;;;;;;;388.93;116.47;;;;;;;1.58;80.62;99444.59;5030934;28;20299;-70
2021/03/24 05:12:38;;;;;;;386.73;113.53;;;;;;;1.88;80.07;99448.03;5032616;28;20283;-70
2021/03/24 05:15:06;;;;;;;392.33;122.97;;;;;;;1.94;79.68;99445.69;5004042;28;20120;-70
2021/03/24 05:17:35;;;;;;;388.90;115.63;;;;;;;2.05;79.80;99451.88;5032781;28;20283;-69
2021/03/24 05:20:29;;;;;;;383.15;117.13;;;;;;;2.13;79.23;99449.56;5029220;28;20265;-69
2021/03/24 05:22:55;;;;;;;388.17;120.97;;;;;;;2.22;78.90;99447.28;5029692;28;20046;-70
2021/03/24 05:25:24;;;;;;;387.37;124.30;;;;;;;2.35;78.17;99448.47;5033125;28;20049;-70
2021/03/24 05:28:03;;;;;;;388.93;123.67;;;;;;;2.46;78.54;99447.94;5029512;28;20030;-70
2021/03/24 05:30:31;;;;;;;393.90;125.22;;;;;;;2.55;78.52;99439.72;5033360;28;20288;-70
2021/03/24 05:33:13;;;;;;;397.50;123.23;;;;;;;2.70;78.48;99450.25;5028842;28;20106;-70
2021/03/24 05:35:50;;;;;;;397.40;128.70;;;;;;;2.88;76.87;99447.31;5029843;28;20264;-70
2021/03/24 05:38:29;;;;;;;386.30;122.93;;;;;;;3.12;75.68;99451.31;5031614;28;20307;-70
2021/03/24 05:41:16;;;;;;;381.23;126.93;;;;;;;3.21;75.35;99450.66;5032545;28;20037;-69
2021/03/24 05:43:59;;;;;;;391.47;123.93;;;;;;;3.33;75.18;99447.53;5031802;28;20046;-72
2021/03/24 05:46:46;;;;;;;391.03;122.90;;;;;;;3.42;74.81;99441.00;5027113;28;20284;-71
2021/03/24 05:49:29;;;;;;;389.70;121.23;;;;;;;3.49;74.98;99442.00;5032713;28;20851;-71
2021/03/24 05:52:15;;;;;;;390.47;123.83;;;;;;;3.56;74.59;99434.56;5030077;28;20276;-71
2021/03/24 05:54:58;;;;;;;399.90;129.17;;;;;;;3.70;74.32;99442.44;5028632;28;20287;-71
2021/03/24 05:57:36;;;;;;;400.57;128.10;;;;;;;3.75;74.48;99442.56;5032463;28;20337;-69
2021/03/24 06:00:10;;;;;;;404.40;133.10;;;;;;;3.74;73.86;99444.22;5038143;28;20518;-70
2021/03/24 06:02:49;;;;;;;302.52;98.30;;;;;;;4.07;71.08;99441.53;5035109;28;20291;-70
2021/03/24 06:05:35;;;;;;;394.93;129.07;;;;;;;4.14;71.29;99456.06;5032309;28;20282;-70
2021/03/24 06:08:26;;;;;;;386.20;124.50;;;;;;;4.19;71.52;99456.16;5037428;28;20644;-73
2021/03/24 06:11:02;;;;;;;373.35;121.53;;;;;;;4.25;71.54;99461.31;5032207;28;20291;-69
2021/03/24 06:14:09;;;;;;;392.17;130.23;;;;;;;4.26;71.89;99456.28;5033724;28;20037;-71
2021/03/24 06:17:05;;;;;;;374.17;118.40;;;;;;;4.18;71.89;99455.28;5015942;28;20372;-71
2021/03/24 06:19:40;;;;;;;380.48;123.30;;;;;;;4.06;72.15;99455.91;5017553;28;20331;-70
2021/03/24 06:22:21;;;;;;;376.73;126.33;;;;;;;4.22;71.75;99456.19;5016080;28;20050;-69
2021/03/24 06:25:04;;;;;;;389.30;133.20;;;;;;;4.24;71.62;99459.63;4999572;28;20695;-71
2021/03/24 06:27:32;;;;;;;382.13;132.33;;;;;;;4.22;71.49;99454.50;5014935;28;20351;-71
2021/03/24 06:30:24;;;;;;;384.03;124.80;;;;;;;4.32;70.99;99458.09;5017757;28;20322;-70
2021/03/24 06:33:07;;;;;;;381.50;130.47;;;;;;;4.55;70.09;99454.28;5014939;28;20304;-71
2021/03/24 06:35:54;;;;;;;379.07;124.40;;;;;;;4.73;69.10;99456.31;5014536;28;20261;-71
2021/03/24 06:38:50;;;;;;;373.90;139.60;;;;;;;4.96;67.87;99448.25;5017676;28;20283;-72
2021/03/24 06:41:27;;;;;;;399.15;139.48;;;;;;;5.12;67.11;99451.03;5015411;28;20277;-71
2021/03/24 06:44:23;;;;;;;382.87;129.87;;;;;;;5.32;67.06;99460.66;5013659;28;20050;-71
2021/03/24 06:46:55;;;;;;;390.77;132.73;;;;;;;5.37;65.67;99446.34;5017550;28;20284;-70
2021/03/24 06:49:58;;;;;;;393.67;134.30;;;;;;;5.74;65.25;99462.09;5016930;28;20332;-71
2021/03/24 06:52:35;;;;;;;396.53;142.47;;;;;;;5.92;64.71;99467.47;5014474;28;20264;-70
2021/03/24 06:55:38;;;;;;;380.70;132.10;;;;;;;6.07;64.12;99470.19;5036077;28;20260;-71
2021/03/24 06:58:28;;;;;;;394.93;150.07;;;;;;;6.19;63.17;99465.28;5053533;28;20834;-71
2021/03/24 07:01:09;;;;;;;386.93;138.27;;;;;;;6.32;61.69;99466.28;5030059;28;20273;-70
2021/03/24 07:03:58;;;;;;;394.33;207.23;;;;;;;6.48;61.49;99468.16;5037089;28;20355;-69
2021/03/24 07:06:27;;;;;;;371.30;133.07;;;;;;;6.49;60.79;99471.56;5030105;28;20348;-70
2021/03/24 07:09:10;;;;;;;390.33;138.83;;;;;;;6.51;59.82;99474.97;5035377;28;20366;-69
2021/03/24 07:11:57;;;;;;;393.43;143.67;;;;;;;6.41;60.11;99471.44;5033657;28;20661;-70
2021/03/24 07:14:31;;;;;;;381.23;130.97;;;;;;;6.38;59.90;99466.34;5034361;28;20274;-69
2021/03/24 07:17:15;;;;;;;392.13;137.73;;;;;;;6.56;58.86;99473.31;5036704;28;20382;-70
2021/03/24 07:20:08;;;;;;;387.17;139.27;;;;;;;6.36;58.98;99473.13;5029130;28;20622;-70
2021/03/24 07:23:08;;;;;;;399.13;170.30;;;;;;;6.26;57.48;99487.44;5035582;28;20260;-69
2021/03/24 07:26:10;;;;;;;371.43;126.97;;;;;;;6.27;58.16;99475.56;5037147;28;20244;-70
2021/03/24 07:29:00;;;;;;;380.10;134.00;;;;;;;6.32;58.58;99472.19;5031976;28;20347;-70
2021/03/24 07:31:47;;;;;;;378.27;127.40;;;;;;;6.47;57.43;99473.22;5037182;28;20276;-70
2021/03/24 07:34:47;;;;;;;378.57;129.83;;;;;;;6.38;57.54;99466.34;5031055;28;20278;-69
2021/03/24 07:37:55;;;;;;;390.13;143.50;;;;;;;6.49;57.53;99466.47;5035373;28;20326;-70
2021/03/24 07:40:32;;;;;;;380.33;136.32;;;;;;;6.61;56.61;99471.69;5013831;28;20275;-70
2021/03/24 07:43:31;;;;;;;380.13;136.83;;;;;;;6.56;57.61;99474.19;5010502;28;20058;-70
2021/03/24 07:46:12;;;;;;;383.50;137.00;;;;;;;6.55;56.69;99469.91;5007378;28;20372;-70
2021/03/24 07:49:08;;;;;;;372.57;135.80;;;;;;;6.59;56.74;99470.81;5012565;28;20388;-69
2021/03/24 07:52:11;;;;;;;388.00;140.93;;;;;;;6.76;56.92;99475.22;5008976;28;20361;-69
2021/03/24 07:54:58;;;;;;;376.27;220.27;;;;;;;6.95;56.50;99471.16;5010816;28;20273;-70
2021/03/24 07:57:39;;;;;;;400.90;181.33;;;;;;;6.79;56.50;99477.81;4998197;28;20287;-69
2021/03/24 08:00:14;;;;;;;341.83;185.70;;;;;;;6.95;56.11;99465.22;5015610;28;20268;-69
2021/03/24 08:02:45;;;;;;;394.00;200.90;;;;;;;6.85;56.39;99471.91;5017113;28;20312;-70
2021/03/24 08:05:45;;;;;;;390.00;195.63;;;;;;;7.10;55.91;99470.44;5019347;28;20292;-72
2021/03/24 08:08:27;;;;;;;365.07;220.80;;;;;;;7.09;55.83;99472.13;5004287;28;20289;-70
2021/03/24 08:11:11;;;;;;;392.30;203.93;;;;;;;7.05;56.08;99464.44;5017539;28;20425;-70
2021/03/24 08:13:51;;;;;;;383.90;189.23;;;;;;;7.25;55.43;99462.91;5000513;28;20272;-71
2021/03/24 08:16:38;;;;;;;399.40;199.43;;;;;;;7.44;54.78;99456.22;5018322;28;20329;-69
2021/03/24 08:19:22;;;;;;;365.03;133.90;;;;;;;7.35;54.63;99462.97;5033131;28;20642;-68
2021/03/24 08:22:08;;;;;;;378.40;136.60;;;;;;;7.69;54.10;99445.34;5035376;28;20268;-68
2021/03/24 08:25:02;;;;;;;370.87;137.93;;;;;;;7.61;54.35;99459.75;5033347;28;20293;-67
2021/03/24 08:27:48;;;;;;;367.97;129.97;;;;;;;7.49;54.90;99455.44;5034610;28;20311;-70
2021/03/24 08:30:30;;;;;;;368.23;133.67;;;;;;;7.74;54.28;99448.78;5031624;28;20287;-70
2021/03/24 08:33:15;;;;;;;374.97;149.43;;;;;;;7.90;52.22;99448.00;5036169;28;20509;-68
2021/03/24 08:35:55;;;;;;;284.93;110.83;;;;;;;7.98;52.36;99448.03;5042916;28;20633;-68
2021/03/24 08:38:31;;;;;;;400.83;159.50;;;;;;;8.14;49.63;99455.78;5030832;28;20486;-67
2021/03/24 08:41:09;;;;;;;418.37;171.20;;;;;;;7.92;51.05;99459.09;5032576;28;20409;-68
2021/03/24 08:43:56;;;;;;;343.77;210.23;;;;;;;7.85;51.81;99456.50;5028977;28;20128;-68
2021/03/24 08:46:31;;;;;;;366.97;141.83;;;;;;;7.94;51.68;99452.25;5034283;28;20276;-68
2021/03/24 08:49:12;;;;;;;363.03;140.07;;;;;;;7.62;50.77;99448.69;5030697;28;20374;-68
2021/03/24 08:51:43;;;;;;;374.47;139.83;;;;;;;7.59;51.47;99441.91;5031176;28;20311;-68
2021/03/24 08:54:14;;;;;;;345.23;134.40;;;;;;;7.87;51.12;99448.00;5030226;28;20342;-67
2021/03/24 08:57:01;;;;;;;377.13;146.60;;;;;;;7.79;50.50;99439.44;5031903;28;20264;-67
2021/03/24 08:59:40;;;;;;;413.30;164.10;;;;;;;7.52;50.82;99439.28;5032353;28;20620;-68
2021/03/24 09:02:24;;;;;;;400.23;150.40;;;;;;;7.83;51.53;99430.94;5028878;28;20037;-69
2021/03/24 09:05:07;;;;;;;414.60;168.67;;;;;;;8.19;50.37;99431.09;5037288;28;20245;-69
2021/03/24 09:07:36;;;;;;;395.43;160.87;;;;;;;8.20;49.94;99425.13;5045997;28;20338;-71
2021/03/24 09:10:38;;;;;;;398.73;157.77;;;;;;;8.14;50.29;99427.69;5045473;28;20315;-69
2021/03/24 09:13:32;;;;;;;393.00;155.80;;;;;;;7.79;51.17;99436.88;5043188;28;20264;-69
2021/03/24 09:16:19;;;;;;;384.13;171.77;;;;;;;8.07;50.79;99413.16;5034431;28;20280;-69
2021/03/24 09:19:12;;;;;;;403.70;173.10;;;;;;;8.14;50.89;99427.69;5031115;28;20303;-68
2021/03/24 09:21:53;;;;;;;367.20;142.70;;;;;;;8.36;50.98;99425.22;5033918;28;20044;-71
2021/03/24 09:24:35;;;;;;;389.97;154.97;;;;;;;7.75;50.26;99420.72;5032714;28;20628;-69
2021/03/24 09:27:29;;;;;;;393.57;152.50;;;;;;;7.97;49.98;99415.69;5033727;28;20307;-68
2021/03/24 09:30:22;;;;;;;396.20;161.33;;;;;;;8.23;49.78;99417.47;5032538;28;20280;-68
2021/03/24 09:33:30;;;;;;;394.70;154.40;;;;;;;8.25;49.09;99415.78;5033369;28;20664;-68
2021/03/24 09:36:33;;;;;;;408.50;174.03;;;;;;;8.16;49.92;99423.44;5039820;28;20264;-69
2021/03/24 09:39:07;;;;;;;393.63;161.37;;;;;;;7.99;50.13;99406.34;5036256;28;20364;-68
2021/03/24 09:41:46;;;;;;;404.13;169.53;;;;;;;8.13;49.54;99423.44;5037983;28;20256;-68
2021/03/24 09:44:20;;;;;;;391.13;155.83;;;;;;;8.25;51.13;99403.03;5031229;28;20618;-68
2021/03/24 09:46:52;;;;;;;386.67;160.50;;;;;;;8.32;49.26;99398.81;5037333;28;20264;-69
2021/03/24 09:49:25;;;;;;;398.20;158.23;;;;;;;8.20;49.51;99402.16;5049460;28;20264;-69
2021/03/24 09:52:15;;;;;;;390.73;156.57;;;;;;;8.51;49.50;99408.22;5036976;28;20264;-68
2021/03/24 09:55:20;;;;;;;403.83;167.93;;;;;;;8.40;49.94;99407.34;5035554;28;20323;-68
2021/03/24 09:58:04;;;;;;;394.40;160.30;;;;;;;8.41;49.51;99413.28;5008925;28;20315;-67
2021/03/24 10:00:34;;;;;;;402.47;216.77;;;;;;;8.21;49.06;99403.88;5037725;28;20280;-67
2021/03/24 10:03:24;;;;;;;374.00;186.13;;;;;;;8.04;49.89;99394.44;5034320;28;20271;-68
2021/03/24 10:05:55;;;;;;;390.70;145.67;;;;;;;8.24;49.85;99400.44;5032149;28;20269;-68
2021/03/24 10:08:33;;;;;;;389.47;151.07;;;;;;;8.39;49.58;99394.56;5033600;28;20272;-67
2021/03/24 10:11:05;;;;;;;396.90;157.57;;;;;;;8.33;49.29;99389.44;5036039;28;20292;-68
2021/03/24 10:13:35;;;;;;;392.80;174.20;;;;;;;8.11;49.71;99391.03;5033256;28;20264;-68
2021/03/24 10:16:13;;;;;;;359.73;158.17;;;;;;;8.44;49.19;99388.63;5037155;28;20732;-67
2021/03/24 10:19:00;;;;;;;334.70;177.63;;;;;;;8.96;48.12;99386.09;5037392;28;20271;-67
2021/03/24 10:21:40;;;;;;;387.53;167.20;;;;;;;8.71;48.31;99398.00;5030917;28;20398;-67
2021/03/24 10:24:18;;;;;;;354.43;157.07;;;;;;;8.41;50.08;99391.16;5036188;28;20367;-67
2021/03/24 10:27:02;;;;;;;379.23;188.53;;;;;;;8.37;48.80;99392.00;5038602;28;20077;-67
2021/03/24 10:30:01;;;;;;;435.23;205.13;;;;;;;8.22;49.93;99380.03;5036094;28;20420;-67
2021/03/24 10:32:39;;;;;;;378.23;169.30;;;;;;;8.15;49.44;99395.31;5037391;28;20432;-67
2021/03/24 10:35:26;;;;;;;385.87;160.03;;;;;;;8.21;49.28;99377.47;5032030;28;20264;-67
2021/03/24 10:37:59;;;;;;;382.63;154.60;;;;;;;8.42;49.21;99374.97;5035779;28;20277;-66
2021/03/24 10:40:33;;;;;;;388.13;161.20;;;;;;;8.49;48.44;99373.28;5037026;28;20382;-67
2021/03/24 10:43:14;;;;;;;404.00;169.30;;;;;;;8.24;49.42;99373.22;5032118;28;20434;-67
2021/03/24 10:45:49;;;;;;;381.48;175.25;;;;;;;8.12;49.47;99373.19;5037746;28;20409;-66
2021/03/24 10:48:27;;;;;;;;;;;;;;;8.11;50.05;99380.84;5035964;28;20093;-67
2021/03/24 10:51:19;;;;;;;543.22;485.05;;;;;;;8.19;50.52;99364.69;5033588;28;20390;-67
2021/03/24 10:53:45;;;;;;;374.10;256.83;;;;;;;8.19;51.04;99374.03;5035746;28;20052;-70
2021/03/24 10:56:55;;;;;;;404.57;173.77;;;;;;;8.40;50.54;99375.84;5038452;28;20315;-67
2021/03/24 10:59:21;;;;;;;393.47;165.83;;;;;;;8.28;50.24;99366.41;5011972;28;20069;-68
2021/03/24 11:02:13;;;;;;;310.33;183.33;;;;;;;8.15;50.20;99369.78;5034289;28;20589;-68
2021/03/24 11:04:51;;;;;;;404.33;162.33;;;;;;;7.99;50.75;99371.44;5032983;28;20033;-68
2021/03/24 11:07:32;;;;;;;409.43;179.67;;;;;;;7.90;50.86;99366.31;5032135;28;20029;-68
2021/03/24 11:10:27;;;;;;;407.57;175.97;;;;;;;7.99;51.59;99368.88;5034438;28;20297;-68
2021/03/24 11:12:57;;;;;;;;;;;;;;;8.20;49.86;99355.31;5032893;28;20284;-68
2021/03/24 11:15:30;;;;;;;406.52;171.98;;;;;;;8.07;50.87;99367.22;5033369;28;20249;-68
2021/03/24 11:18:07;;;;;;;348.57;196.63;;;;;;;8.04;50.47;99348.47;5032228;28;20413;-68
2021/03/24 11:20:53;;;;;;;392.50;163.70;;;;;;;7.87;50.08;99339.91;5033149;28;20281;-69
2021/03/24 11:23:42;;;;;;;424.45;188.25;;;;;;;7.69;50.99;99351.75;5035882;28;20409;-70
2021/03/24 11:26:16;;;;;;;400.53;164.17;;;;;;;7.85;51.03;99350.13;5033043;28;20045;-69
2021/03/24 11:28:45;;;;;;;306.13;133.18;;;;;;;7.79;50.54;99342.44;5034906;28;20283;-68
2021/03/24 11:31:17;;;;;;;433.33;196.48;;;;;;;7.99;50.30;99328.03;5031035;28;20751;-68
2021/03/24 11:33:52;;;;;;;405.27;189.60;;;;;;;8.11;50.85;99333.16;5036028;28;20308;-68
2021/03/24 11:36:23;;;;;;;398.07;162.83;;;;;;;8.02;49.95;99325.47;5034563;28;20340;-68
2021/03/24 11:39:11;;;;;;;402.70;165.47;;;;;;;7.97;49.81;99345.06;5033550;28;20087;-66
2021/03/24 11:41:39;;;;;;;406.70;166.17;;;;;;;8.11;50.12;99340.81;5037453;28;20264;-68
2021/03/24 11:44:09;;;;;;;407.43;176.77;;;;;;;7.85;49.78;99333.97;5032644;28;20045;-67
2021/03/24 11:46:41;;;;;;;403.93;184.43;;;;;;;8.12;50.72;99326.38;5036351;28;20330;-68
2021/03/24 11:49:13;;;;;;;407.90;181.43;;;;;;;8.19;50.12;99338.28;5034745;28;20390;-68
2021/03/24 11:52:03;;;;;;;376.27;167.97;;;;;;;8.12;50.00;99328.91;5034935;28;20299;-68
2021/03/24 11:54:41;;;;;;;403.10;170.20;;;;;;;8.10;49.68;99331.50;5031038;28;20322;-68